createdAt,value
2022-12-11T00:04:50.540Z,80
2022-12-11T00:09:52.015Z,79
2022-12-11T00:14:54.047Z,79
2022-12-11T00:19:55.609Z,80
2022-12-11T00:24:56.976Z,80
2022-12-11T00:29:58.601Z,79
2022-12-11T00:34:59.700Z,79
2022-12-11T00:40:01.836Z,79
2022-12-11T00:45:03.673Z,80
2022-12-11T00:50:04.848Z,80
2022-12-11T00:55:06.625Z,79
2022-12-11T01:00:07.993Z,79
2022-12-11T01:05:09.718Z,79
2022-12-11T01:10:11.547Z,79
2022-12-11T01:15:13.143Z,79
2022-12-11T01:20:14.145Z,79
2022-12-11T01:25:15.446Z,79
2022-12-11T01:30:16.851Z,80
2022-12-11T01:35:18.787Z,80
2022-12-11T01:40:21.034Z,80
2022-12-11T01:45:25.704Z,80
2022-12-11T01:50:24.761Z,80
2022-12-11T01:55:26.396Z,81
2022-12-11T02:00:36.386Z,81
2022-12-11T02:05:30.247Z,80
2022-12-11T02:10:31.502Z,80
2022-12-11T02:15:33.451Z,80
2022-12-11T02:20:34.826Z,79
2022-12-11T02:25:36.256Z,78
2022-12-11T02:30:37.637Z,78
2022-12-11T02:35:39.363Z,78
2022-12-11T02:40:41.182Z,78
2022-12-11T03:00:47.309Z,77
2022-12-11T03:15:53.130Z,74
2022-12-11T03:36:00.280Z,74
2022-12-11T03:41:02.257Z,75
2022-12-11T03:46:04.047Z,76
2022-12-11T03:51:06.048Z,76
2022-12-11T03:56:07.221Z,76
2022-12-11T04:01:08.707Z,75
2022-12-11T04:06:10.829Z,75
2022-12-11T04:11:12.578Z,75
2022-12-11T04:16:14.174Z,75
2022-12-11T04:21:16.262Z,75
2022-12-11T04:26:17.694Z,75
2022-12-11T04:31:19.609Z,75
2022-12-11T04:36:21.096Z,76
2022-12-11T04:41:22.964Z,75
2022-12-11T04:46:25.045Z,75
2022-12-11T04:51:26.877Z,74
2022-12-11T04:56:28.987Z,74
2022-12-11T05:01:31.021Z,74
2022-12-11T05:06:33.286Z,73
2022-12-11T05:11:34.522Z,73
2022-12-11T05:16:35.753Z,73
2022-12-11T05:21:37.698Z,73
2022-12-11T05:26:39.101Z,73
2022-12-11T05:31:40.813Z,73
2022-12-11T05:36:42.620Z,74
2022-12-11T05:41:43.745Z,74
2022-12-11T05:46:45.693Z,74
2022-12-11T05:51:46.927Z,74
2022-12-11T05:56:48.848Z,74
2022-12-11T06:01:50.809Z,73
2022-12-11T06:06:52.326Z,74
2022-12-11T06:11:53.986Z,74
2022-12-11T06:16:56.089Z,73
2022-12-11T06:21:58.147Z,73
2022-12-11T06:27:00.207Z,73
2022-12-11T06:32:01.522Z,74
2022-12-11T06:32:07.732Z,74
2022-12-11T06:37:09.254Z,74
2022-12-11T06:42:11.085Z,74
2022-12-11T06:47:13.169Z,75
2022-12-11T06:52:18.331Z,75
2022-12-11T06:57:16.317Z,76
2022-12-11T07:02:17.715Z,76
2022-12-11T07:07:19.422Z,76
2022-12-11T07:12:20.892Z,76
2022-12-11T07:17:22.597Z,76
2022-12-11T07:22:24.047Z,76
2022-12-11T07:27:25.626Z,77
2022-12-11T07:32:27.927Z,76
2022-12-11T07:37:28.942Z,76
2022-12-11T07:42:30.392Z,76
2022-12-11T07:47:31.629Z,76
2022-12-11T07:52:33.801Z,76
2022-12-11T07:57:35.671Z,76
2022-12-11T08:02:37.781Z,76
2022-12-11T08:07:39.518Z,77
2022-12-11T08:12:41.594Z,77
2022-12-11T08:17:43.670Z,76
2022-12-11T08:22:45.528Z,76
2022-12-11T08:27:47.450Z,76
2022-12-11T08:32:48.830Z,76
2022-12-11T08:37:50.592Z,75
2022-12-11T08:42:52.698Z,75
2022-12-11T08:47:54.257Z,74
2022-12-11T08:52:56.037Z,75
2022-12-11T08:57:57.606Z,74
2022-12-11T09:02:59.533Z,73
2022-12-11T09:08:01.010Z,73
2022-12-11T09:13:02.596Z,73
2022-12-11T09:18:04.033Z,73
2022-12-11T09:23:05.666Z,72
2022-12-11T09:28:07.405Z,71
2022-12-11T09:33:09.417Z,70
2022-12-11T09:38:10.932Z,71
2022-12-11T09:43:18.356Z,71
2022-12-11T09:48:14.345Z,69
2022-12-11T09:53:15.580Z,69
2022-12-11T09:58:16.846Z,68
2022-12-11T10:03:18.366Z,69
2022-12-11T10:08:19.975Z,68
2022-12-11T10:13:21.777Z,67
2022-12-11T10:18:23.734Z,66
2022-12-11T10:23:25.030Z,66
2022-12-11T10:28:26.226Z,66
2022-12-11T10:33:27.913Z,61
2022-12-11T10:38:29.605Z,62
2022-12-11T10:43:31.624Z,57
2022-12-11T10:48:33.510Z,58
2022-12-11T10:53:34.725Z,58
2022-12-11T10:58:36.145Z,56
2022-12-11T11:03:37.251Z,56
2022-12-11T11:08:38.875Z,57
2022-12-11T11:13:40.788Z,57
2022-12-11T11:18:42.253Z,57
2022-12-11T11:23:46.362Z,57
2022-12-11T11:28:45.422Z,57
2022-12-11T11:33:47.535Z,58
2022-12-11T11:38:48.966Z,58
2022-12-11T11:43:51.023Z,57
2022-12-11T11:48:52.500Z,57
2022-12-11T11:53:54.378Z,58
2022-12-11T11:58:56.091Z,58
2022-12-11T12:03:57.506Z,57
2022-12-11T12:08:58.869Z,58
2022-12-11T12:14:00.305Z,59
2022-12-11T12:19:01.940Z,62
2022-12-11T12:24:03.777Z,63
2022-12-11T12:29:05.399Z,63
2022-12-11T12:34:07.188Z,62
2022-12-11T12:39:08.540Z,62
2022-12-11T12:44:09.990Z,62
2022-12-11T12:49:11.361Z,63
2022-12-11T12:54:12.699Z,63
2022-12-11T12:59:14.229Z,64
2022-12-11T13:04:32.576Z,65
2022-12-11T13:09:17.306Z,64
2022-12-11T13:14:18.571Z,64
2022-12-11T13:19:20.175Z,66
2022-12-11T13:24:22.152Z,67
2022-12-11T13:29:23.853Z,67
2022-12-11T13:34:25.766Z,68
2022-12-11T13:39:27.920Z,69
2022-12-11T13:44:29.338Z,70
2022-12-11T13:49:31.012Z,70
2022-12-11T13:54:33.018Z,70
2022-12-11T13:59:34.525Z,69
2022-12-11T14:04:36.385Z,68
2022-12-11T14:09:38.576Z,67
2022-12-11T14:14:40.128Z,67
2022-12-11T14:19:41.827Z,67
2022-12-11T14:24:43.612Z,67
2022-12-11T14:29:45.196Z,66
2022-12-11T14:34:46.906Z,66
2022-12-11T14:39:48.705Z,67
2022-12-11T14:44:50.664Z,67
2022-12-11T14:49:52.232Z,67
2022-12-11T14:54:54.003Z,66
2022-12-11T14:59:56.077Z,67
2022-12-11T15:04:57.216Z,68
2022-12-11T15:09:59.067Z,68
2022-12-11T15:15:01.064Z,69
2022-12-11T15:20:02.405Z,70
2022-12-11T15:25:03.735Z,70
2022-12-11T15:30:05.678Z,72
2022-12-11T15:35:07.845Z,72
2022-12-11T15:40:09.659Z,72
2022-12-11T15:45:11.149Z,72
2022-12-11T15:50:13.394Z,72
2022-12-11T15:55:14.830Z,72
2022-12-11T16:00:16.903Z,73
2022-12-11T16:05:18.333Z,73
2022-12-11T16:10:20.407Z,74
2022-12-11T16:15:24.000Z,74
2022-12-11T16:20:24.089Z,74
2022-12-11T16:25:25.504Z,75
2022-12-11T16:30:27.474Z,75
2022-12-11T16:35:34.111Z,75
2022-12-11T16:40:30.426Z,74
2022-12-11T16:45:32.433Z,73
2022-12-11T16:50:34.696Z,73
2022-12-11T16:55:35.955Z,73
2022-12-11T17:00:38.042Z,73
2022-12-11T17:05:39.792Z,73
2022-12-11T17:10:41.098Z,74
2022-12-11T17:15:42.637Z,74
2022-12-11T17:20:43.944Z,74
2022-12-11T17:35:48.402Z,72
2022-12-11T17:40:50.268Z,72
2022-12-11T17:45:51.695Z,72
2022-12-11T17:55:54.480Z,72
2022-12-11T18:05:58.438Z,75
2022-12-11T18:16:02.744Z,75
2022-12-11T18:21:04.627Z,75
2022-12-11T18:31:08.115Z,76
2022-12-11T18:36:10.207Z,76
2022-12-11T18:41:11.950Z,76
2022-12-11T18:46:13.673Z,76
2022-12-11T18:51:15.627Z,77
2022-12-11T18:56:17.380Z,77
2022-12-11T19:01:19.343Z,77
2022-12-11T19:06:21.317Z,77
2022-12-11T19:11:23.367Z,77
2022-12-11T19:16:25.482Z,77
2022-12-11T19:21:26.741Z,77
2022-12-11T19:26:28.035Z,78
2022-12-11T19:31:29.679Z,78
2022-12-11T19:36:31.007Z,77
2022-12-11T19:41:32.554Z,76
2022-12-11T19:46:33.822Z,76
2022-12-11T19:51:40.565Z,76
2022-12-11T19:56:36.958Z,75
2022-12-11T20:01:38.537Z,75
2022-12-11T20:06:39.591Z,74
2022-12-11T20:11:41.026Z,75
2022-12-11T20:21:43.713Z,76
2022-12-11T20:26:45.115Z,76
2022-12-11T20:31:52.298Z,76
2022-12-11T20:36:47.896Z,77
2022-12-11T20:41:49.394Z,77
2022-12-11T20:46:51.348Z,77
2022-12-11T20:51:58.663Z,77
2022-12-11T20:56:53.944Z,78
2022-12-11T21:01:55.369Z,78
2022-12-11T21:06:56.481Z,78
2022-12-11T21:12:03.290Z,78
2022-12-11T21:17:04.336Z,78
2022-12-11T21:22:01.169Z,78
2022-12-11T21:27:02.694Z,78
2022-12-11T21:32:04.156Z,78
2022-12-11T21:37:05.346Z,78
2022-12-11T21:42:07.011Z,78
2022-12-11T21:47:09.022Z,77
2022-12-11T21:52:10.812Z,77
2022-12-11T21:57:12.187Z,77
2022-12-11T22:02:14.193Z,77
2022-12-11T22:07:15.457Z,77
2022-12-11T22:12:17.476Z,77
2022-12-11T22:17:19.340Z,77
2022-12-11T22:22:21.329Z,76
2022-12-11T22:27:23.951Z,76
2022-12-11T22:32:24.820Z,76
2022-12-11T22:37:26.304Z,76
2022-12-11T22:42:27.957Z,76
2022-12-11T22:47:30.157Z,76
2022-12-11T22:52:36.395Z,75
2022-12-11T22:57:33.149Z,75
2022-12-11T23:02:34.608Z,75
2022-12-11T23:07:35.842Z,75
2022-12-11T23:12:37.171Z,74
2022-12-11T23:17:38.422Z,74
2022-12-11T23:17:44.766Z,74
2022-12-11T23:22:46.871Z,75
2022-12-11T23:27:48.851Z,75
2022-12-11T23:32:50.712Z,75
2022-12-11T23:37:52.145Z,75
2022-12-11T23:42:54.303Z,75
2022-12-11T23:48:00.624Z,75
2022-12-11T23:52:57.110Z,75
2022-12-11T23:57:58.304Z,74
